sensor_id;sensor_type;location;lat;lon;timestamp;noise_LAeq;noise_LA_min;noise_LA_max;noise_LA01;noise_LA95
74234;Laerm;62591;55.764;37.718;2023-06-14T00:01:23;41.98;35.81;53.86;;
74234;Laerm;62591;55.764;37.718;2023-06-14T00:03:52;39.42;36.37;44.03;;
74234;Laerm;62591;55.764;37.718;2023-06-14T00:06:21;40.17;36.58;45.04;;
74234;Laerm;62591;55.764;37.718;2023-06-14T00:08:53;44.50;38.03;55.58;;
74234;Laerm;62591;55.764;37.718;2023-06-14T00:11:22;42.02;36.92;51.42;;
74234;Laerm;62591;55.764;37.718;2023-06-14T00:13:50;43.85;37.04;61.05;;
74234;Laerm;62591;55.764;37.718;2023-06-14T00:16:19;43.41;36.81;56.80;;
74234;Laerm;62591;55.764;37.718;2023-06-14T00:18:48;40.14;35.37;46.00;;
74234;Laerm;62591;55.764;37.718;2023-06-14T00:21:19;39.13;35.80;43.02;;
74234;Laerm;62591;55.764;37.718;2023-06-14T00:23:48;41.68;35.87;50.61;;
74234;Laerm;62591;55.764;37.718;2023-06-14T00:26:21;38.99;35.15;50.93;;
74234;Laerm;62591;55.764;37.718;2023-06-14T00:28:50;41.05;35.41;48.68;;
74234;Laerm;62591;55.764;37.718;2023-06-14T00:31:18;42.59;36.14;51.78;;
74234;Laerm;62591;55.764;37.718;2023-06-14T00:33:47;39.84;36.43;50.25;;
74234;Laerm;62591;55.764;37.718;2023-06-14T00:36:16;40.13;36.55;48.79;;
74234;Laerm;62591;55.764;37.718;2023-06-14T00:38:44;41.37;35.73;51.08;;
74234;Laerm;62591;55.764;37.718;2023-06-14T00:41:13;44.16;35.95;53.07;;
74234;Laerm;62591;55.764;37.718;2023-06-14T00:43:44;42.58;36.13;53.74;;
74234;Laerm;62591;55.764;37.718;2023-06-14T00:46:14;41.90;36.39;50.71;;
74234;Laerm;62591;55.764;37.718;2023-06-14T00:48:43;41.48;36.52;54.84;;
74234;Laerm;62591;55.764;37.718;2023-06-14T00:51:11;42.37;36.55;56.55;;
74234;Laerm;62591;55.764;37.718;2023-06-14T00:53:40;40.47;35.68;49.57;;
74234;Laerm;62591;55.764;37.718;2023-06-14T00:56:13;42.74;36.38;49.87;;
74234;Laerm;62591;55.764;37.718;2023-06-14T00:58:44;41.77;35.97;51.28;;
74234;Laerm;62591;55.764;37.718;2023-06-14T01:01:12;40.89;36.47;55.31;;
74234;Laerm;62591;55.764;37.718;2023-06-14T01:03:41;41.21;36.71;48.24;;
74234;Laerm;62591;55.764;37.718;2023-06-14T01:06:17;44.34;35.94;73.82;;
74234;Laerm;62591;55.764;37.718;2023-06-14T01:09:03;40.70;35.36;50.17;;
74234;Laerm;62591;55.764;37.718;2023-06-14T01:11:40;40.31;35.49;47.70;;
74234;Laerm;62591;55.764;37.718;2023-06-14T01:14:14;41.88;36.64;53.58;;
74234;Laerm;62591;55.764;37.718;2023-06-14T01:16:47;43.73;36.61;57.42;;
74234;Laerm;62591;55.764;37.718;2023-06-14T01:19:22;41.23;36.47;56.43;;
74234;Laerm;62591;55.764;37.718;2023-06-14T01:21:53;38.89;35.57;41.95;;
74234;Laerm;62591;55.764;37.718;2023-06-14T01:24:23;40.10;35.98;47.32;;
74234;Laerm;62591;55.764;37.718;2023-06-14T01:27:00;40.87;36.37;59.95;;
74234;Laerm;62591;55.764;37.718;2023-06-14T01:29:31;41.04;36.78;50.81;;
74234;Laerm;62591;55.764;37.718;2023-06-14T01:32:01;41.39;37.70;49.76;;
74234;Laerm;62591;55.764;37.718;2023-06-14T01:34:31;42.62;37.30;51.95;;
74234;Laerm;62591;55.764;37.718;2023-06-14T01:37:01;41.51;37.47;54.14;;
74234;Laerm;62591;55.764;37.718;2023-06-14T01:39:33;44.71;38.27;50.76;;
74234;Laerm;62591;55.764;37.718;2023-06-14T01:42:05;47.51;37.65;58.67;;
74234;Laerm;62591;55.764;37.718;2023-06-14T01:44:35;44.26;38.71;53.31;;
74234;Laerm;62591;55.764;37.718;2023-06-14T01:47:04;46.18;38.16;55.08;;
74234;Laerm;62591;55.764;37.718;2023-06-14T01:49:33;45.71;38.43;56.28;;
74234;Laerm;62591;55.764;37.718;2023-06-14T01:52:03;43.03;39.22;48.77;;
74234;Laerm;62591;55.764;37.718;2023-06-14T01:54:35;43.21;39.10;50.31;;
74234;Laerm;62591;55.764;37.718;2023-06-14T01:57:09;45.47;37.70;54.82;;
74234;Laerm;62591;55.764;37.718;2023-06-14T01:59:38;41.95;37.48;53.16;;
74234;Laerm;62591;55.764;37.718;2023-06-14T02:02:08;43.18;38.83;49.55;;
74234;Laerm;62591;55.764;37.718;2023-06-14T02:04:39;47.59;39.29;61.78;;
74234;Laerm;62591;55.764;37.718;2023-06-14T02:07:08;46.82;38.81;52.92;;
74234;Laerm;62591;55.764;37.718;2023-06-14T02:09:38;45.83;38.07;57.38;;
74234;Laerm;62591;55.764;37.718;2023-06-14T02:12:07;45.95;39.34;56.99;;
74234;Laerm;62591;55.764;37.718;2023-06-14T02:14:39;46.29;38.87;56.90;;
74234;Laerm;62591;55.764;37.718;2023-06-14T02:17:07;42.53;38.11;56.50;;
74234;Laerm;62591;55.764;37.718;2023-06-14T02:19:36;42.91;37.96;51.76;;
74234;Laerm;62591;55.764;37.718;2023-06-14T02:22:06;43.12;38.61;51.77;;
74234;Laerm;62591;55.764;37.718;2023-06-14T02:24:35;43.80;38.38;52.51;;
74234;Laerm;62591;55.764;37.718;2023-06-14T02:27:09;44.35;38.85;50.99;;
74234;Laerm;62591;55.764;37.718;2023-06-14T02:29:38;49.31;37.52;62.00;;
74234;Laerm;62591;55.764;37.718;2023-06-14T02:32:08;46.95;38.15;55.88;;
74234;Laerm;62591;55.764;37.718;2023-06-14T02:34:38;43.25;37.34;52.99;;
74234;Laerm;62591;55.764;37.718;2023-06-14T02:37:08;45.93;36.47;59.98;;
74234;Laerm;62591;55.764;37.718;2023-06-14T02:39:38;45.24;36.52;59.55;;
74234;Laerm;62591;55.764;37.718;2023-06-14T02:42:08;45.53;36.70;52.16;;
74234;Laerm;62591;55.764;37.718;2023-06-14T02:44:38;47.52;36.32;56.93;;
74234;Laerm;62591;55.764;37.718;2023-06-14T02:47:07;44.75;36.82;54.36;;
74234;Laerm;62591;55.764;37.718;2023-06-14T02:49:36;44.69;35.88;53.51;;
74234;Laerm;62591;55.764;37.718;2023-06-14T02:52:05;44.41;35.22;53.81;;
74234;Laerm;62591;55.764;37.718;2023-06-14T02:54:36;48.61;36.78;60.78;;
74234;Laerm;62591;55.764;37.718;2023-06-14T02:57:05;51.33;38.40;66.47;;
74234;Laerm;62591;55.764;37.718;2023-06-14T02:59:37;43.54;36.25;53.35;;
74234;Laerm;62591;55.764;37.718;2023-06-14T03:02:06;44.19;36.67;51.12;;
74234;Laerm;62591;55.764;37.718;2023-06-14T03:04:35;45.07;36.40;53.10;;
74234;Laerm;62591;55.764;37.718;2023-06-14T03:07:10;47.26;36.36;54.21;;
74234;Laerm;62591;55.764;37.718;2023-06-14T03:09:42;42.65;34.73;53.39;;
74234;Laerm;62591;55.764;37.718;2023-06-14T03:12:11;47.31;35.74;59.32;;
74234;Laerm;62591;55.764;37.718;2023-06-14T03:14:41;48.41;36.72;62.06;;
74234;Laerm;62591;55.764;37.718;2023-06-14T03:17:16;46.71;37.80;53.80;;
74234;Laerm;62591;55.764;37.718;2023-06-14T03:19:46;48.24;36.97;65.31;;
74234;Laerm;62591;55.764;37.718;2023-06-14T03:22:17;44.93;35.70;51.93;;
74234;Laerm;62591;55.764;37.718;2023-06-14T03:24:46;45.72;38.57;53.58;;
74234;Laerm;62591;55.764;37.718;2023-06-14T03:27:15;46.07;38.55;52.71;;
74234;Laerm;62591;55.764;37.718;2023-06-14T03:29:47;48.34;37.59;55.01;;
74234;Laerm;62591;55.764;37.718;2023-06-14T03:32:16;46.01;37.55;53.21;;
74234;Laerm;62591;55.764;37.718;2023-06-14T03:34:45;48.80;39.70;59.70;;
74234;Laerm;62591;55.764;37.718;2023-06-14T03:37:18;48.75;39.13;57.55;;
74234;Laerm;62591;55.764;37.718;2023-06-14T03:39:47;47.79;37.84;59.32;;
74234;Laerm;62591;55.764;37.718;2023-06-14T03:42:20;48.13;39.65;59.72;;
74234;Laerm;62591;55.764;37.718;2023-06-14T03:44:51;52.69;40.28;66.51;;
74234;Laerm;62591;55.764;37.718;2023-06-14T03:47:22;49.77;42.39;62.29;;
74234;Laerm;62591;55.764;37.718;2023-06-14T03:49:52;48.30;40.15;54.93;;
74234;Laerm;62591;55.764;37.718;2023-06-14T03:52:20;46.84;38.85;54.88;;
74234;Laerm;62591;55.764;37.718;2023-06-14T03:54:50;48.15;39.04;55.11;;
74234;Laerm;62591;55.764;37.718;2023-06-14T03:57:23;47.20;37.62;59.21;;
74234;Laerm;62591;55.764;37.718;2023-06-14T03:59:55;48.27;37.82;55.31;;
74234;Laerm;62591;55.764;37.718;2023-06-14T04:02:25;47.72;38.53;53.48;;
74234;Laerm;62591;55.764;37.718;2023-06-14T04:04:56;48.47;38.45;62.74;;
74234;Laerm;62591;55.764;37.718;2023-06-14T04:07:43;48.96;40.45;63.38;;
74234;Laerm;62591;55.764;37.718;2023-06-14T04:10:14;50.38;42.82;59.45;;
74234;Laerm;62591;55.764;37.718;2023-06-14T04:12:45;47.27;37.67;56.47;;
74234;Laerm;62591;55.764;37.718;2023-06-14T04:15:15;49.36;38.45;58.50;;
74234;Laerm;62591;55.764;37.718;2023-06-14T04:17:51;46.95;40.51;56.01;;
74234;Laerm;62591;55.764;37.718;2023-06-14T04:20:25;49.54;37.63;55.84;;
74234;Laerm;62591;55.764;37.718;2023-06-14T04:22:56;47.74;38.78;58.55;;
74234;Laerm;62591;55.764;37.718;2023-06-14T04:25:25;48.55;39.27;59.08;;
74234;Laerm;62591;55.764;37.718;2023-06-14T04:28:00;48.85;38.91;59.86;;
74234;Laerm;62591;55.764;37.718;2023-06-14T04:30:31;48.17;39.00;59.27;;
74234;Laerm;62591;55.764;37.718;2023-06-14T04:33:01;48.29;38.63;55.19;;
74234;Laerm;62591;55.764;37.718;2023-06-14T04:35:33;48.13;38.85;59.06;;
74234;Laerm;62591;55.764;37.718;2023-06-14T04:38:03;51.32;42.63;61.71;;
74234;Laerm;62591;55.764;37.718;2023-06-14T04:40:37;49.07;40.41;58.97;;
74234;Laerm;62591;55.764;37.718;2023-06-14T04:43:13;47.96;39.85;57.23;;
74234;Laerm;62591;55.764;37.718;2023-06-14T04:45:51;50.87;39.72;62.68;;
74234;Laerm;62591;55.764;37.718;2023-06-14T04:48:23;48.83;39.94;61.39;;
74234;Laerm;62591;55.764;37.718;2023-06-14T04:50:54;49.57;41.47;57.35;;
74234;Laerm;62591;55.764;37.718;2023-06-14T04:53:23;46.36;38.47;65.85;;
74234;Laerm;62591;55.764;37.718;2023-06-14T04:55:55;47.69;37.78;61.04;;
74234;Laerm;62591;55.764;37.718;2023-06-14T04:58:25;48.80;40.57;66.11;;
74234;Laerm;62591;55.764;37.718;2023-06-14T05:00:56;48.47;40.17;56.61;;
74234;Laerm;62591;55.764;37.718;2023-06-14T05:03:26;49.45;40.35;56.76;;
74234;Laerm;62591;55.764;37.718;2023-06-14T05:05:58;47.64;39.14;61.30;;
74234;Laerm;62591;55.764;37.718;2023-06-14T05:08:27;50.76;41.09;70.29;;
74234;Laerm;62591;55.764;37.718;2023-06-14T05:10:57;47.39;41.10;54.58;;
74234;Laerm;62591;55.764;37.718;2023-06-14T05:13:26;47.78;40.84;63.58;;
74234;Laerm;62591;55.764;37.718;2023-06-14T05:15:56;52.22;41.59;70.45;;
74234;Laerm;62591;55.764;37.718;2023-06-14T05:18:25;47.90;40.65;61.76;;
74234;Laerm;62591;55.764;37.718;2023-06-14T05:20:54;49.51;40.80;62.87;;
74234;Laerm;62591;55.764;37.718;2023-06-14T05:23:23;49.29;40.53;67.66;;
74234;Laerm;62591;55.764;37.718;2023-06-14T05:25:51;51.20;40.09;69.41;;
74234;Laerm;62591;55.764;37.718;2023-06-14T05:28:20;49.41;42.61;70.11;;
74234;Laerm;62591;55.764;37.718;2023-06-14T05:30:49;48.36;40.09;63.13;;
74234;Laerm;62591;55.764;37.718;2023-06-14T05:33:19;51.11;40.19;70.65;;
74234;Laerm;62591;55.764;37.718;2023-06-14T05:35:48;49.22;41.38;58.52;;
74234;Laerm;62591;55.764;37.718;2023-06-14T05:38:18;52.86;39.92;61.54;;
74234;Laerm;62591;55.764;37.718;2023-06-14T05:40:47;50.69;41.62;61.70;;
74234;Laerm;62591;55.764;37.718;2023-06-14T05:43:16;48.67;39.39;57.58;;
74234;Laerm;62591;55.764;37.718;2023-06-14T05:45:44;50.59;43.27;61.20;;
74234;Laerm;62591;55.764;37.718;2023-06-14T05:48:13;59.35;41.96;74.16;;
74234;Laerm;62591;55.764;37.718;2023-06-14T05:50:43;50.32;43.55;59.06;;
74234;Laerm;62591;55.764;37.718;2023-06-14T05:53:12;49.32;43.56;54.80;;
74234;Laerm;62591;55.764;37.718;2023-06-14T05:55:40;49.34;41.84;56.61;;
74234;Laerm;62591;55.764;37.718;2023-06-14T05:58:09;49.26;42.30;56.06;;
74234;Laerm;62591;55.764;37.718;2023-06-14T06:00:38;52.00;43.15;70.92;;
74234;Laerm;62591;55.764;37.718;2023-06-14T06:03:07;49.66;44.21;63.40;;
74234;Laerm;62591;55.764;37.718;2023-06-14T06:05:36;49.98;42.49;63.86;;
74234;Laerm;62591;55.764;37.718;2023-06-14T06:08:06;51.14;45.47;60.98;;
74234;Laerm;62591;55.764;37.718;2023-06-14T06:10:35;50.84;43.67;58.04;;
74234;Laerm;62591;55.764;37.718;2023-06-14T06:13:03;47.76;40.60;56.63;;
74234;Laerm;62591;55.764;37.718;2023-06-14T06:15:32;56.87;42.48;77.03;;
74234;Laerm;62591;55.764;37.718;2023-06-14T06:18:00;50.61;43.30;58.24;;
74234;Laerm;62591;55.764;37.718;2023-06-14T06:20:29;47.86;41.83;58.30;;
74234;Laerm;62591;55.764;37.718;2023-06-14T06:22:59;50.61;41.93;60.07;;
74234;Laerm;62591;55.764;37.718;2023-06-14T06:25:29;49.46;43.13;68.33;;
74234;Laerm;62591;55.764;37.718;2023-06-14T06:27:59;50.45;44.81;61.49;;
74234;Laerm;62591;55.764;37.718;2023-06-14T06:30:27;48.97;43.31;56.40;;
74234;Laerm;62591;55.764;37.718;2023-06-14T06:32:56;50.21;45.25;56.15;;
74234;Laerm;62591;55.764;37.718;2023-06-14T06:35:25;52.68;44.62;66.01;;
74234;Laerm;62591;55.764;37.718;2023-06-14T06:37:53;51.39;44.84;63.00;;
74234;Laerm;62591;55.764;37.718;2023-06-14T06:40:22;49.50;41.16;58.79;;
74234;Laerm;62591;55.764;37.718;2023-06-14T06:42:53;52.20;41.80;70.93;;
74234;Laerm;62591;55.764;37.718;2023-06-14T06:45:22;49.30;42.63;57.58;;
74234;Laerm;62591;55.764;37.718;2023-06-14T06:47:52;50.00;42.99;61.28;;
74234;Laerm;62591;55.764;37.718;2023-06-14T06:50:20;51.97;45.30;61.77;;
74234;Laerm;62591;55.764;37.718;2023-06-14T06:52:52;50.91;43.42;62.20;;
74234;Laerm;62591;55.764;37.718;2023-06-14T06:55:21;51.20;43.35;63.60;;
74234;Laerm;62591;55.764;37.718;2023-06-14T06:57:50;49.83;41.49;57.27;;
74234;Laerm;62591;55.764;37.718;2023-06-14T07:00:21;49.52;42.46;56.29;;
74234;Laerm;62591;55.764;37.718;2023-06-14T07:02:52;52.54;47.69;67.33;;
74234;Laerm;62591;55.764;37.718;2023-06-14T07:05:22;53.06;45.06;66.19;;
74234;Laerm;62591;55.764;37.718;2023-06-14T07:07:51;48.40;42.33;54.86;;
74234;Laerm;62591;55.764;37.718;2023-06-14T07:10:23;50.75;41.53;61.13;;
74234;Laerm;62591;55.764;37.718;2023-06-14T07:12:52;49.29;44.09;54.55;;
74234;Laerm;62591;55.764;37.718;2023-06-14T07:15:23;54.09;44.67;63.32;;
74234;Laerm;62591;55.764;37.718;2023-06-14T07:17:51;50.03;43.55;56.11;;
74234;Laerm;62591;55.764;37.718;2023-06-14T07:20:20;51.07;44.34;58.17;;
74234;Laerm;62591;55.764;37.718;2023-06-14T07:22:51;51.10;43.65;59.93;;
74234;Laerm;62591;55.764;37.718;2023-06-14T07:25:20;48.33;43.23;57.01;;
74234;Laerm;62591;55.764;37.718;2023-06-14T07:27:49;50.66;44.23;58.69;;
74234;Laerm;62591;55.764;37.718;2023-06-14T07:30:18;47.83;41.09;68.90;;
74234;Laerm;62591;55.764;37.718;2023-06-14T07:32:48;49.31;41.77;70.08;;
74234;Laerm;62591;55.764;37.718;2023-06-14T07:35:17;49.07;42.10;56.62;;
74234;Laerm;62591;55.764;37.718;2023-06-14T07:37:46;48.57;42.12;70.62;;
74234;Laerm;62591;55.764;37.718;2023-06-14T07:40:15;52.19;42.84;66.27;;
74234;Laerm;62591;55.764;37.718;2023-06-14T07:42:46;55.98;46.62;73.05;;
74234;Laerm;62591;55.764;37.718;2023-06-14T07:45:17;65.95;45.86;79.26;;
74234;Laerm;62591;55.764;37.718;2023-06-14T07:47:48;48.90;43.83;56.75;;
74234;Laerm;62591;55.764;37.718;2023-06-14T07:50:17;51.20;44.04;57.48;;
74234;Laerm;62591;55.764;37.718;2023-06-14T07:52:45;49.12;43.19;55.25;;
74234;Laerm;62591;55.764;37.718;2023-06-14T07:55:15;49.58;43.91;56.67;;
74234;Laerm;62591;55.764;37.718;2023-06-14T07:57:45;49.34;44.85;57.67;;
74234;Laerm;62591;55.764;37.718;2023-06-14T08:00:15;49.06;42.72;60.50;;
74234;Laerm;62591;55.764;37.718;2023-06-14T08:02:45;52.23;45.22;65.47;;
74234;Laerm;62591;55.764;37.718;2023-06-14T08:05:15;52.51;43.02;61.10;;
74234;Laerm;62591;55.764;37.718;2023-06-14T08:07:44;50.96;45.45;70.15;;
74234;Laerm;62591;55.764;37.718;2023-06-14T08:10:13;51.21;44.09;65.05;;
74234;Laerm;62591;55.764;37.718;2023-06-14T08:12:42;52.67;44.79;65.20;;
74234;Laerm;62591;55.764;37.718;2023-06-14T08:15:11;49.37;41.97;57.79;;
74234;Laerm;62591;55.764;37.718;2023-06-14T08:17:43;49.76;41.72;70.46;;
74234;Laerm;62591;55.764;37.718;2023-06-14T08:20:15;50.24;43.02;65.13;;
74234;Laerm;62591;55.764;37.718;2023-06-14T08:22:44;49.28;42.87;60.03;;
74234;Laerm;62591;55.764;37.718;2023-06-14T08:25:14;49.94;42.80;61.37;;
74234;Laerm;62591;55.764;37.718;2023-06-14T08:27:43;48.56;42.12;54.36;;
74234;Laerm;62591;55.764;37.718;2023-06-14T08:30:13;49.16;41.98;60.03;;
74234;Laerm;62591;55.764;37.718;2023-06-14T08:32:42;47.33;42.28;52.72;;
74234;Laerm;62591;55.764;37.718;2023-06-14T08:35:11;46.42;41.93;57.82;;
74234;Laerm;62591;55.764;37.718;2023-06-14T08:37:42;47.72;41.12;62.24;;
74234;Laerm;62591;55.764;37.718;2023-06-14T08:40:18;48.80;41.50;57.08;;
74234;Laerm;62591;55.764;37.718;2023-06-14T08:42:50;49.83;42.26;60.76;;
74234;Laerm;62591;55.764;37.718;2023-06-14T08:45:20;50.83;43.96;61.97;;
74234;Laerm;62591;55.764;37.718;2023-06-14T08:47:53;49.42;43.79;55.94;;
74234;Laerm;62591;55.764;37.718;2023-06-14T08:50:26;52.95;42.99;68.94;;
74234;Laerm;62591;55.764;37.718;2023-06-14T08:53:01;48.42;42.92;57.85;;
74234;Laerm;62591;55.764;37.718;2023-06-14T08:55:32;49.01;44.24;54.50;;
74234;Laerm;62591;55.764;37.718;2023-06-14T08:58:04;51.01;44.25;61.97;;
74234;Laerm;62591;55.764;37.718;2023-06-14T09:00:33;50.39;44.59;55.00;;
74234;Laerm;62591;55.764;37.718;2023-06-14T09:03:02;51.11;44.42;57.93;;
74234;Laerm;62591;55.764;37.718;2023-06-14T09:05:33;48.90;44.63;54.41;;
74234;Laerm;62591;55.764;37.718;2023-06-14T09:08:03;50.61;44.65;59.69;;
74234;Laerm;62591;55.764;37.718;2023-06-14T09:10:33;48.18;41.96;57.08;;
74234;Laerm;62591;55.764;37.718;2023-06-14T09:13:06;60.37;41.33;76.00;;
74234;Laerm;62591;55.764;37.718;2023-06-14T09:15:35;49.56;41.72;60.63;;
74234;Laerm;62591;55.764;37.718;2023-06-14T09:18:04;48.61;42.64;56.03;;
74234;Laerm;62591;55.764;37.718;2023-06-14T09:20:34;50.76;41.69;63.13;;
74234;Laerm;62591;55.764;37.718;2023-06-14T09:23:04;49.82;42.14;57.88;;
74234;Laerm;62591;55.764;37.718;2023-06-14T09:25:47;47.85;41.72;59.50;;
74234;Laerm;62591;55.764;37.718;2023-06-14T09:28:15;50.27;42.31;67.09;;
74234;Laerm;62591;55.764;37.718;2023-06-14T09:30:44;48.04;41.54;59.74;;
74234;Laerm;62591;55.764;37.718;2023-06-14T09:33:17;52.05;41.05;70.28;;
74234;Laerm;62591;55.764;37.718;2023-06-14T09:35:46;47.91;41.89;55.85;;
74234;Laerm;62591;55.764;37.718;2023-06-14T09:38:16;48.83;43.21;60.72;;
74234;Laerm;62591;55.764;37.718;2023-06-14T09:40:45;48.88;41.62;62.51;;
74234;Laerm;62591;55.764;37.718;2023-06-14T09:43:13;51.31;44.09;61.75;;
74234;Laerm;62591;55.764;37.718;2023-06-14T09:45:43;51.62;44.89;65.23;;
74234;Laerm;62591;55.764;37.718;2023-06-14T09:48:14;47.59;40.98;60.76;;
74234;Laerm;62591;55.764;37.718;2023-06-14T09:50:46;50.97;43.71;57.06;;
74234;Laerm;62591;55.764;37.718;2023-06-14T09:53:20;52.17;43.29;63.55;;
74234;Laerm;62591;55.764;37.718;2023-06-14T09:55:52;46.95;42.44;55.02;;
74234;Laerm;62591;55.764;37.718;2023-06-14T09:58:26;49.92;41.76;63.16;;
74234;Laerm;62591;55.764;37.718;2023-06-14T10:00:57;53.84;42.74;76.03;;
74234;Laerm;62591;55.764;37.718;2023-06-14T10:03:28;51.27;43.39;62.53;;
74234;Laerm;62591;55.764;37.718;2023-06-14T10:06:18;50.48;41.68;63.16;;
74234;Laerm;62591;55.764;37.718;2023-06-14T10:08:49;49.38;42.80;58.80;;
74234;Laerm;62591;55.764;37.718;2023-06-14T10:11:19;50.71;44.80;67.02;;
74234;Laerm;62591;55.764;37.718;2023-06-14T10:13:49;48.87;41.20;68.50;;
74234;Laerm;62591;55.764;37.718;2023-06-14T10:16:23;51.20;40.90;63.18;;
74234;Laerm;62591;55.764;37.718;2023-06-14T10:19:01;54.11;45.34;66.77;;
74234;Laerm;62591;55.764;37.718;2023-06-14T10:21:37;55.54;44.90;69.05;;
74234;Laerm;62591;55.764;37.718;2023-06-14T10:24:13;53.75;41.31;69.61;;
74234;Laerm;62591;55.764;37.718;2023-06-14T10:26:51;52.64;44.18;66.73;;
74234;Laerm;62591;55.764;37.718;2023-06-14T10:29:20;52.90;43.04;62.06;;
74234;Laerm;62591;55.764;37.718;2023-06-14T10:31:57;49.96;40.68;60.36;;
74234;Laerm;62591;55.764;37.718;2023-06-14T10:34:27;48.24;39.52;61.77;;
74234;Laerm;62591;55.764;37.718;2023-06-14T10:37:11;48.28;40.03;58.36;;
74234;Laerm;62591;55.764;37.718;2023-06-14T10:39:42;47.88;40.26;58.45;;
74234;Laerm;62591;55.764;37.718;2023-06-14T10:42:12;48.77;38.54;57.60;;
74234;Laerm;62591;55.764;37.718;2023-06-14T10:44:43;46.05;38.90;56.43;;
74234;Laerm;62591;55.764;37.718;2023-06-14T10:47:25;51.11;39.88;66.25;;
74234;Laerm;62591;55.764;37.718;2023-06-14T10:49:55;48.02;41.04;58.42;;
74234;Laerm;62591;55.764;37.718;2023-06-14T10:52:26;49.31;42.24;58.04;;
74234;Laerm;62591;55.764;37.718;2023-06-14T10:55:09;48.53;40.31;55.86;;
74234;Laerm;62591;55.764;37.718;2023-06-14T10:57:41;51.11;41.32;75.45;;
74234;Laerm;62591;55.764;37.718;2023-06-14T11:00:20;50.49;40.51;63.36;;
74234;Laerm;62591;55.764;37.718;2023-06-14T11:03:28;51.38;40.37;61.25;;
74234;Laerm;62591;55.764;37.718;2023-06-14T11:06:00;52.09;41.12;58.74;;
74234;Laerm;62591;55.764;37.718;2023-06-14T11:11:48;49.57;42.20;61.45;;
74234;Laerm;62591;55.764;37.718;2023-06-14T11:14:17;48.59;40.31;64.70;;
74234;Laerm;62591;55.764;37.718;2023-06-14T11:16:48;48.83;42.60;67.54;;
74234;Laerm;62591;55.764;37.718;2023-06-14T11:19:17;48.78;42.39;54.69;;
74234;Laerm;62591;55.764;37.718;2023-06-14T11:21:48;50.57;42.81;68.83;;
74234;Laerm;62591;55.764;37.718;2023-06-14T11:24:17;53.96;42.21;71.02;;
74234;Laerm;62591;55.764;37.718;2023-06-14T11:26:48;45.34;39.66;50.81;;
74234;Laerm;62591;55.764;37.718;2023-06-14T11:29:20;47.98;42.44;55.78;;
74234;Laerm;62591;55.764;37.718;2023-06-14T11:31:48;51.97;42.92;62.89;;
74234;Laerm;62591;55.764;37.718;2023-06-14T11:34:18;55.45;42.83;64.17;;
74234;Laerm;62591;55.764;37.718;2023-06-14T11:36:47;48.56;43.24;60.61;;
74234;Laerm;62591;55.764;37.718;2023-06-14T11:39:16;50.01;42.18;60.66;;
74234;Laerm;62591;55.764;37.718;2023-06-14T11:41:45;49.33;42.69;57.62;;
74234;Laerm;62591;55.764;37.718;2023-06-14T11:44:15;49.62;41.30;57.78;;
74234;Laerm;62591;55.764;37.718;2023-06-14T11:46:44;59.12;45.04;69.79;;
74234;Laerm;62591;55.764;37.718;2023-06-14T11:49:13;50.39;41.65;60.74;;
74234;Laerm;62591;55.764;37.718;2023-06-14T11:51:43;49.02;43.35;59.70;;
74234;Laerm;62591;55.764;37.718;2023-06-14T11:54:12;50.58;45.07;63.19;;
74234;Laerm;62591;55.764;37.718;2023-06-14T11:56:41;49.42;42.45;58.04;;
74234;Laerm;62591;55.764;37.718;2023-06-14T11:59:13;57.25;51.16;64.45;;
74234;Laerm;62591;55.764;37.718;2023-06-14T12:01:44;57.74;52.31;63.17;;
74234;Laerm;62591;55.764;37.718;2023-06-14T12:04:13;58.57;53.64;64.61;;
74234;Laerm;62591;55.764;37.718;2023-06-14T12:06:42;58.69;54.16;63.14;;
74234;Laerm;62591;55.764;37.718;2023-06-14T12:09:11;55.46;51.40;61.73;;
74234;Laerm;62591;55.764;37.718;2023-06-14T12:11:44;55.18;46.80;71.22;;
74234;Laerm;62591;55.764;37.718;2023-06-14T12:14:13;53.11;46.79;58.36;;
74234;Laerm;62591;55.764;37.718;2023-06-14T12:16:44;51.22;43.58;66.88;;
74234;Laerm;62591;55.764;37.718;2023-06-14T12:19:15;49.36;42.37;58.09;;
74234;Laerm;62591;55.764;37.718;2023-06-14T12:21:46;51.47;43.97;63.27;;
74234;Laerm;62591;55.764;37.718;2023-06-14T12:24:16;51.87;44.94;67.80;;
74234;Laerm;62591;55.764;37.718;2023-06-14T12:26:45;51.28;44.48;61.71;;
74234;Laerm;62591;55.764;37.718;2023-06-14T12:29:14;52.05;43.80;64.77;;
74234;Laerm;62591;55.764;37.718;2023-06-14T12:31:44;51.52;45.03;66.32;;
74234;Laerm;62591;55.764;37.718;2023-06-14T12:34:13;47.75;43.93;54.03;;
74234;Laerm;62591;55.764;37.718;2023-06-14T12:36:42;49.81;45.37;56.97;;
74234;Laerm;62591;55.764;37.718;2023-06-14T12:39:13;49.76;45.14;57.48;;
74234;Laerm;62591;55.764;37.718;2023-06-14T12:41:42;50.71;45.76;56.23;;
74234;Laerm;62591;55.764;37.718;2023-06-14T12:44:11;52.47;45.39;61.75;;
74234;Laerm;62591;55.764;37.718;2023-06-14T12:46:39;49.25;44.50;54.63;;
74234;Laerm;62591;55.764;37.718;2023-06-14T12:49:11;51.43;43.94;69.86;;
74234;Laerm;62591;55.764;37.718;2023-06-14T12:51:41;52.50;45.13;62.14;;
74234;Laerm;62591;55.764;37.718;2023-06-14T12:54:10;52.31;45.73;65.05;;
74234;Laerm;62591;55.764;37.718;2023-06-14T12:56:39;51.37;46.36;62.86;;
74234;Laerm;62591;55.764;37.718;2023-06-14T12:59:08;52.55;45.00;59.77;;
74234;Laerm;62591;55.764;37.718;2023-06-14T13:01:38;48.45;42.25;67.88;;
74234;Laerm;62591;55.764;37.718;2023-06-14T13:04:09;59.43;43.53;83.24;;
74234;Laerm;62591;55.764;37.718;2023-06-14T13:06:39;52.80;44.60;62.20;;
74234;Laerm;62591;55.764;37.718;2023-06-14T13:09:08;49.10;41.57;62.36;;
74234;Laerm;62591;55.764;37.718;2023-06-14T13:11:39;47.83;43.07;58.93;;
74234;Laerm;62591;55.764;37.718;2023-06-14T13:14:08;47.94;42.09;56.28;;
74234;Laerm;62591;55.764;37.718;2023-06-14T13:16:51;48.44;42.09;66.41;;
74234;Laerm;62591;55.764;37.718;2023-06-14T13:19:23;51.07;42.40;59.91;;
74234;Laerm;62591;55.764;37.718;2023-06-14T13:21:52;47.73;42.51;54.48;;
74234;Laerm;62591;55.764;37.718;2023-06-14T13:24:21;49.79;43.55;61.95;;
74234;Laerm;62591;55.764;37.718;2023-06-14T13:26:50;50.23;44.98;60.83;;
74234;Laerm;62591;55.764;37.718;2023-06-14T13:29:19;49.89;43.45;58.03;;
74234;Laerm;62591;55.764;37.718;2023-06-14T13:31:48;47.23;40.82;59.24;;
74234;Laerm;62591;55.764;37.718;2023-06-14T13:34:17;48.62;43.28;59.75;;
74234;Laerm;62591;55.764;37.718;2023-06-14T13:36:48;61.00;43.16;75.71;;
74234;Laerm;62591;55.764;37.718;2023-06-14T13:39:17;52.77;44.73;77.29;;
74234;Laerm;62591;55.764;37.718;2023-06-14T13:41:46;49.61;42.02;58.92;;
74234;Laerm;62591;55.764;37.718;2023-06-14T13:44:14;47.34;41.12;55.28;;
74234;Laerm;62591;55.764;37.718;2023-06-14T13:46:47;48.75;41.87;61.92;;
74234;Laerm;62591;55.764;37.718;2023-06-14T13:49:16;49.40;43.29;64.35;;
74234;Laerm;62591;55.764;37.718;2023-06-14T13:51:47;48.20;43.89;55.85;;
74234;Laerm;62591;55.764;37.718;2023-06-14T13:54:19;49.12;43.66;55.88;;